sensor_id;sensor_type;location;lat;lon;timestamp;P1;P2;P0
75960;PMS7003;64644;48.914;2.254;2024-02-15T00:00:09;12.00;12.00;8.50
75960;PMS7003;64644;48.914;2.254;2024-02-15T00:02:36;11.25;11.25;8.25
75960;PMS7003;64644;48.914;2.254;2024-02-15T00:05:01;13.75;12.25;8.25
75960;PMS7003;64644;48.914;2.254;2024-02-15T00:07:26;12.75;12.75;9.00
75960;PMS7003;64644;48.914;2.254;2024-02-15T00:09:52;18.50;15.50;11.75
75960;PMS7003;64644;48.914;2.254;2024-02-15T00:12:18;18.00;15.75;11.00
75960;PMS7003;64644;48.914;2.254;2024-02-15T00:14:44;24.75;22.50;13.00
75960;PMS7003;64644;48.914;2.254;2024-02-15T00:17:09;22.75;18.75;12.25
75960;PMS7003;64644;48.914;2.254;2024-02-15T00:19:36;19.00;16.50;11.75
75960;PMS7003;64644;48.914;2.254;2024-02-15T00:22:02;19.50;17.25;11.00
75960;PMS7003;64644;48.914;2.254;2024-02-15T00:24:27;18.50;18.50;12.00
75960;PMS7003;64644;48.914;2.254;2024-02-15T00:26:52;19.50;17.50;12.00
75960;PMS7003;64644;48.914;2.254;2024-02-15T00:29:19;17.50;14.75;11.00
75960;PMS7003;64644;48.914;2.254;2024-02-15T00:31:44;20.25;13.75;10.50
75960;PMS7003;64644;48.914;2.254;2024-02-15T00:34:09;18.25;16.75;11.25
75960;PMS7003;64644;48.914;2.254;2024-02-15T00:36:35;17.50;16.25;12.25
75960;PMS7003;64644;48.914;2.254;2024-02-15T00:39:00;16.25;16.25;11.75
75960;PMS7003;64644;48.914;2.254;2024-02-15T00:41:26;24.75;21.50;14.25
75960;PMS7003;64644;48.914;2.254;2024-02-15T00:43:51;27.75;24.00;16.75
75960;PMS7003;64644;48.914;2.254;2024-02-15T00:46:17;26.50;23.75;15.75
75960;PMS7003;64644;48.914;2.254;2024-02-15T00:48:42;33.50;25.75;17.25
75960;PMS7003;64644;48.914;2.254;2024-02-15T00:51:07;34.50;29.50;20.75
75960;PMS7003;64644;48.914;2.254;2024-02-15T00:53:33;42.50;33.50;22.00
75960;PMS7003;64644;48.914;2.254;2024-02-15T00:55:58;44.50;37.25;24.00
75960;PMS7003;64644;48.914;2.254;2024-02-15T00:58:24;39.00;33.75;24.25
75960;PMS7003;64644;48.914;2.254;2024-02-15T01:00:50;40.50;37.25;24.00
75960;PMS7003;64644;48.914;2.254;2024-02-15T01:03:15;34.25;31.00;20.75
75960;PMS7003;64644;48.914;2.254;2024-02-15T01:05:41;28.25;28.25;18.50
75960;PMS7003;64644;48.914;2.254;2024-02-15T01:08:06;37.00;34.50;18.50
75960;PMS7003;64644;48.914;2.254;2024-02-15T01:10:33;36.25;33.00;19.50
75960;PMS7003;64644;48.914;2.254;2024-02-15T01:12:59;36.00;30.00;18.75
75960;PMS7003;64644;48.914;2.254;2024-02-15T01:15:25;38.50;34.25;19.25
75960;PMS7003;64644;48.914;2.254;2024-02-15T01:17:50;46.75;36.75;24.00
75960;PMS7003;64644;48.914;2.254;2024-02-15T01:20:15;44.50;33.75;18.75
75960;PMS7003;64644;48.914;2.254;2024-02-15T01:22:41;49.00;40.25;23.00
75960;PMS7003;64644;48.914;2.254;2024-02-15T01:25:06;44.75;38.75;24.25
75960;PMS7003;64644;48.914;2.254;2024-02-15T01:27:32;42.25;35.75;23.25
75960;PMS7003;64644;48.914;2.254;2024-02-15T01:29:59;45.25;37.50;22.25
75960;PMS7003;64644;48.914;2.254;2024-02-15T01:32:24;35.00;31.75;22.75
75960;PMS7003;64644;48.914;2.254;2024-02-15T01:34:53;40.25;35.50;22.50
75960;PMS7003;64644;48.914;2.254;2024-02-15T01:37:20;41.50;36.75;21.75
75960;PMS7003;64644;48.914;2.254;2024-02-15T01:39:46;40.00;34.25;22.00
75960;PMS7003;64644;48.914;2.254;2024-02-15T01:42:11;29.75;26.75;18.75
75960;PMS7003;64644;48.914;2.254;2024-02-15T01:44:39;29.00;28.75;19.25
75960;PMS7003;64644;48.914;2.254;2024-02-15T01:47:05;34.00;28.75;17.75
75960;PMS7003;64644;48.914;2.254;2024-02-15T01:49:30;23.25;23.25;16.50
75960;PMS7003;64644;48.914;2.254;2024-02-15T01:51:57;27.00;20.50;12.00
75960;PMS7003;64644;48.914;2.254;2024-02-15T01:54:23;25.00;23.75;16.75
75960;PMS7003;64644;48.914;2.254;2024-02-15T01:56:50;27.75;23.00;17.00
75960;PMS7003;64644;48.914;2.254;2024-02-15T01:59:16;28.00;25.25;16.25
75960;PMS7003;64644;48.914;2.254;2024-02-15T02:01:42;21.50;20.00;15.75
75960;PMS7003;64644;48.914;2.254;2024-02-15T02:04:08;20.00;18.75;13.75
75960;PMS7003;64644;48.914;2.254;2024-02-15T02:06:34;19.25;15.75;9.00
75960;PMS7003;64644;48.914;2.254;2024-02-15T02:08:59;22.00;21.50;13.00
75960;PMS7003;64644;48.914;2.254;2024-02-15T02:11:27;17.00;15.75;11.75
75960;PMS7003;64644;48.914;2.254;2024-02-15T02:13:54;21.00;17.75;11.50
75960;PMS7003;64644;48.914;2.254;2024-02-15T02:16:29;19.50;17.75;12.50
75960;PMS7003;64644;48.914;2.254;2024-02-15T02:19:00;16.75;16.00;10.75
75960;PMS7003;64644;48.914;2.254;2024-02-15T02:21:27;20.50;19.00;11.00
75960;PMS7003;64644;48.914;2.254;2024-02-15T02:23:55;15.25;13.00;10.50
75960;PMS7003;64644;48.914;2.254;2024-02-15T02:26:21;17.00;16.25;9.50
75960;PMS7003;64644;48.914;2.254;2024-02-15T02:28:48;14.00;13.75;9.00
75960;PMS7003;64644;48.914;2.254;2024-02-15T02:31:13;16.50;14.25;9.50
75960;PMS7003;64644;48.914;2.254;2024-02-15T02:33:40;15.50;14.50;9.00
75960;PMS7003;64644;48.914;2.254;2024-02-15T02:36:06;13.00;13.00;8.50
75960;PMS7003;64644;48.914;2.254;2024-02-15T02:38:37;12.00;11.50;8.25
75960;PMS7003;64644;48.914;2.254;2024-02-15T02:41:05;13.25;12.50;8.25
75960;PMS7003;64644;48.914;2.254;2024-02-15T02:43:31;18.50;16.25;8.75
75960;PMS7003;64644;48.914;2.254;2024-02-15T02:45:56;15.00;13.00;9.00
75960;PMS7003;64644;48.914;2.254;2024-02-15T02:48:21;13.00;12.00;6.75
75960;PMS7003;64644;48.914;2.254;2024-02-15T02:50:47;15.25;14.00;7.75
75960;PMS7003;64644;48.914;2.254;2024-02-15T02:53:13;13.25;11.25;8.50
75960;PMS7003;64644;48.914;2.254;2024-02-15T02:55:40;12.50;11.75;8.00
75960;PMS7003;64644;48.914;2.254;2024-02-15T02:58:06;11.00;10.00;7.00
75960;PMS7003;64644;48.914;2.254;2024-02-15T03:00:32;11.00;8.75;7.00
75960;PMS7003;64644;48.914;2.254;2024-02-15T03:02:58;6.75;6.75;4.00
75960;PMS7003;64644;48.914;2.254;2024-02-15T03:05:24;13.50;12.00;8.75
75960;PMS7003;64644;48.914;2.254;2024-02-15T03:07:54;12.75;9.50;6.00
75960;PMS7003;64644;48.914;2.254;2024-02-15T03:10:19;11.25;11.00;8.00
75960;PMS7003;64644;48.914;2.254;2024-02-15T03:12:45;13.75;11.25;7.75
75960;PMS7003;64644;48.914;2.254;2024-02-15T03:15:13;11.00;11.00;8.00
75960;PMS7003;64644;48.914;2.254;2024-02-15T03:17:39;11.25;11.00;8.75
75960;PMS7003;64644;48.914;2.254;2024-02-15T03:20:06;16.75;15.25;9.00
75960;PMS7003;64644;48.914;2.254;2024-02-15T03:25:21;14.25;11.75;8.00
75960;PMS7003;64644;48.914;2.254;2024-02-15T03:27:53;11.75;11.50;8.25
75960;PMS7003;64644;48.914;2.254;2024-02-15T03:30:20;15.00;11.75;9.00
75960;PMS7003;64644;48.914;2.254;2024-02-15T03:32:48;15.25;13.50;9.25
75960;PMS7003;64644;48.914;2.254;2024-02-15T03:35:16;20.00;17.50;13.00
75960;PMS7003;64644;48.914;2.254;2024-02-15T03:37:42;21.75;20.00;11.25
75960;PMS7003;64644;48.914;2.254;2024-02-15T03:40:08;25.00;23.75;13.00
75960;PMS7003;64644;48.914;2.254;2024-02-15T03:42:34;13.75;12.75;9.50
75960;PMS7003;64644;48.914;2.254;2024-02-15T03:45:03;18.50;17.50;12.00
75960;PMS7003;64644;48.914;2.254;2024-02-15T03:47:31;17.75;17.75;12.25
75960;PMS7003;64644;48.914;2.254;2024-02-15T03:49:58;18.25;16.00;11.00
75960;PMS7003;64644;48.914;2.254;2024-02-15T03:52:23;19.25;19.25;14.25
75960;PMS7003;64644;48.914;2.254;2024-02-15T03:54:49;22.25;19.25;12.25
75960;PMS7003;64644;48.914;2.254;2024-02-15T03:57:14;22.25;18.50;11.75
75960;PMS7003;64644;48.914;2.254;2024-02-15T03:59:42;16.00;15.00;11.00
75960;PMS7003;64644;48.914;2.254;2024-02-15T04:02:07;17.00;17.00;12.00
75960;PMS7003;64644;48.914;2.254;2024-02-15T04:04:39;17.75;16.75;11.50
75960;PMS7003;64644;48.914;2.254;2024-02-15T04:07:07;19.25;17.50;11.00
75960;PMS7003;64644;48.914;2.254;2024-02-15T04:09:32;16.50;14.50;10.75
75960;PMS7003;64644;48.914;2.254;2024-02-15T04:12:00;18.50;18.50;12.50
75960;PMS7003;64644;48.914;2.254;2024-02-15T04:14:26;19.50;18.00;13.00
75960;PMS7003;64644;48.914;2.254;2024-02-15T04:16:51;26.25;22.75;14.75
75960;PMS7003;64644;48.914;2.254;2024-02-15T04:19:16;27.25;25.00;16.25
75960;PMS7003;64644;48.914;2.254;2024-02-15T04:21:44;21.50;19.75;13.25
75960;PMS7003;64644;48.914;2.254;2024-02-15T04:24:11;17.50;17.50;12.50
75960;PMS7003;64644;48.914;2.254;2024-02-15T04:26:37;18.50;17.25;12.25
75960;PMS7003;64644;48.914;2.254;2024-02-15T04:29:02;19.25;17.75;11.00
75960;PMS7003;64644;48.914;2.254;2024-02-15T04:31:28;14.00;13.00;9.50
75960;PMS7003;64644;48.914;2.254;2024-02-15T04:33:54;12.00;11.25;7.00
75960;PMS7003;64644;48.914;2.254;2024-02-15T04:36:20;12.00;11.00;8.00
75960;PMS7003;64644;48.914;2.254;2024-02-15T04:38:49;11.00;11.00;7.00
75960;PMS7003;64644;48.914;2.254;2024-02-15T04:41:15;7.75;7.00;6.00
75960;PMS7003;64644;48.914;2.254;2024-02-15T04:43:47;6.50;6.00;5.50
75960;PMS7003;64644;48.914;2.254;2024-02-15T04:46:13;8.25;8.25;6.00
75960;PMS7003;64644;48.914;2.254;2024-02-15T04:48:39;8.00;7.00;4.25
75960;PMS7003;64644;48.914;2.254;2024-02-15T04:51:07;12.75;8.00;6.75
75960;PMS7003;64644;48.914;2.254;2024-02-15T04:53:32;5.75;5.75;3.25
75960;PMS7003;64644;48.914;2.254;2024-02-15T04:55:58;3.75;3.75;1.75
75960;PMS7003;64644;48.914;2.254;2024-02-15T04:58:26;4.75;3.75;3.00
75960;PMS7003;64644;48.914;2.254;2024-02-15T05:00:53;7.50;4.25;3.75
75960;PMS7003;64644;48.914;2.254;2024-02-15T05:03:23;6.00;6.00;2.75
75960;PMS7003;64644;48.914;2.254;2024-02-15T05:05:49;7.00;5.25;4.25
75960;PMS7003;64644;48.914;2.254;2024-02-15T05:08:15;3.75;2.75;2.00
75960;PMS7003;64644;48.914;2.254;2024-02-15T05:10:40;6.00;3.50;3.00
75960;PMS7003;64644;48.914;2.254;2024-02-15T05:13:06;3.25;3.25;3.00
75960;PMS7003;64644;48.914;2.254;2024-02-15T05:15:31;3.75;3.75;3.00
75960;PMS7003;64644;48.914;2.254;2024-02-15T05:17:58;5.50;3.25;3.00
75960;PMS7003;64644;48.914;2.254;2024-02-15T05:20:23;3.00;3.00;3.00
75960;PMS7003;64644;48.914;2.254;2024-02-15T05:22:52;4.25;2.50;1.00
75960;PMS7003;64644;48.914;2.254;2024-02-15T05:25:18;4.75;4.50;3.00
75960;PMS7003;64644;48.914;2.254;2024-02-15T05:27:52;5.25;5.25;3.00
75960;PMS7003;64644;48.914;2.254;2024-02-15T05:30:18;2.25;2.25;2.00
75960;PMS7003;64644;48.914;2.254;2024-02-15T05:32:44;2.50;2.50;2.00
75960;PMS7003;64644;48.914;2.254;2024-02-15T05:35:10;6.25;6.25;3.75
75960;PMS7003;64644;48.914;2.254;2024-02-15T05:37:36;3.50;3.25;2.50
75960;PMS7003;64644;48.914;2.254;2024-02-15T05:40:05;2.00;1.25;1.00
75960;PMS7003;64644;48.914;2.254;2024-02-15T05:42:31;3.00;3.00;2.00
75960;PMS7003;64644;48.914;2.254;2024-02-15T05:44:59;3.50;3.50;3.00
75960;PMS7003;64644;48.914;2.254;2024-02-15T05:47:57;4.75;3.25;2.25
75960;PMS7003;64644;48.914;2.254;2024-02-15T05:50:23;3.00;3.00;2.00
75960;PMS7003;64644;48.914;2.254;2024-02-15T05:52:49;6.50;5.50;3.00
75960;PMS7003;64644;48.914;2.254;2024-02-15T05:55:14;2.75;2.75;2.50
75960;PMS7003;64644;48.914;2.254;2024-02-15T05:57:43;4.00;4.00;2.75
75960;PMS7003;64644;48.914;2.254;2024-02-15T06:00:09;5.00;5.00;4.50
75960;PMS7003;64644;48.914;2.254;2024-02-15T06:02:35;6.75;3.00;2.00
75960;PMS7003;64644;48.914;2.254;2024-02-15T06:05:01;6.25;6.00;3.00
75960;PMS7003;64644;48.914;2.254;2024-02-15T06:07:29;6.00;4.75;3.00
75960;PMS7003;64644;48.914;2.254;2024-02-15T06:09:57;4.00;3.00;2.00
75960;PMS7003;64644;48.914;2.254;2024-02-15T06:12:22;6.25;5.00;3.25
75960;PMS7003;64644;48.914;2.254;2024-02-15T06:14:48;3.25;2.50;2.00
75960;PMS7003;64644;48.914;2.254;2024-02-15T06:17:13;3.00;3.00;2.00
75960;PMS7003;64644;48.914;2.254;2024-02-15T06:19:39;5.25;3.75;2.75
75960;PMS7003;64644;48.914;2.254;2024-02-15T06:22:04;4.00;4.00;2.00
75960;PMS7003;64644;48.914;2.254;2024-02-15T06:24:30;3.50;3.50;2.00
75960;PMS7003;64644;48.914;2.254;2024-02-15T06:26:55;7.75;4.75;2.50
75960;PMS7003;64644;48.914;2.254;2024-02-15T06:29:24;5.75;3.00;2.00
75960;PMS7003;64644;48.914;2.254;2024-02-15T06:32:09;7.00;6.00;4.25
75960;PMS7003;64644;48.914;2.254;2024-02-15T06:34:53;5.25;3.25;2.00
75960;PMS7003;64644;48.914;2.254;2024-02-15T06:37:38;5.50;5.50;3.00
75960;PMS7003;64644;48.914;2.254;2024-02-15T06:40:23;2.00;2.00;1.75
75960;PMS7003;64644;48.914;2.254;2024-02-15T06:42:48;7.00;5.25;3.50
75960;PMS7003;64644;48.914;2.254;2024-02-15T06:45:14;3.00;3.00;2.00
75960;PMS7003;64644;48.914;2.254;2024-02-15T06:47:42;6.00;6.00;4.75
75960;PMS7003;64644;48.914;2.254;2024-02-15T06:50:11;6.00;6.00;3.25
75960;PMS7003;64644;48.914;2.254;2024-02-15T06:52:42;2.75;2.75;1.75
75960;PMS7003;64644;48.914;2.254;2024-02-15T06:55:08;3.00;3.00;3.00
75960;PMS7003;64644;48.914;2.254;2024-02-15T06:57:38;5.00;5.00;3.00
75960;PMS7003;64644;48.914;2.254;2024-02-15T07:00:06;5.00;5.00;3.00
75960;PMS7003;64644;48.914;2.254;2024-02-15T07:02:33;5.25;5.25;3.00
75960;PMS7003;64644;48.914;2.254;2024-02-15T07:04:59;4.00;4.00;2.00
75960;PMS7003;64644;48.914;2.254;2024-02-15T07:07:24;5.00;3.00;2.00
75960;PMS7003;64644;48.914;2.254;2024-02-15T07:09:50;2.00;2.00;2.00
75960;PMS7003;64644;48.914;2.254;2024-02-15T07:12:16;5.50;5.50;3.25
75960;PMS7003;64644;48.914;2.254;2024-02-15T07:14:41;3.00;3.00;3.00
75960;PMS7003;64644;48.914;2.254;2024-02-15T07:17:07;5.00;5.00;3.00
75960;PMS7003;64644;48.914;2.254;2024-02-15T07:19:32;7.00;6.00;4.00
75960;PMS7003;64644;48.914;2.254;2024-02-15T07:22:01;5.00;5.00;3.00
75960;PMS7003;64644;48.914;2.254;2024-02-15T07:24:27;3.00;3.00;2.00
75960;PMS7003;64644;48.914;2.254;2024-02-15T07:26:52;6.00;5.25;3.00
75960;PMS7003;64644;48.914;2.254;2024-02-15T07:29:20;5.75;5.75;3.00
75960;PMS7003;64644;48.914;2.254;2024-02-15T07:31:48;5.50;5.25;3.50
75960;PMS7003;64644;48.914;2.254;2024-02-15T07:34:13;5.75;5.75;3.00
75960;PMS7003;64644;48.914;2.254;2024-02-15T07:36:39;3.00;3.00;2.00
75960;PMS7003;64644;48.914;2.254;2024-02-15T07:39:07;6.00;5.00;3.00
75960;PMS7003;64644;48.914;2.254;2024-02-15T07:41:37;6.00;5.25;3.00
75960;PMS7003;64644;48.914;2.254;2024-02-15T07:44:03;6.25;5.00;3.00
75960;PMS7003;64644;48.914;2.254;2024-02-15T07:46:29;7.25;5.50;3.50
75960;PMS7003;64644;48.914;2.254;2024-02-15T07:48:54;5.25;5.25;3.00
75960;PMS7003;64644;48.914;2.254;2024-02-15T07:51:21;4.75;4.25;2.75
75960;PMS7003;64644;48.914;2.254;2024-02-15T07:53:47;4.50;4.50;3.50
75960;PMS7003;64644;48.914;2.254;2024-02-15T07:56:14;7.25;7.00;5.00
75960;PMS7003;64644;48.914;2.254;2024-02-15T07:58:48;5.00;5.00;3.00
75960;PMS7003;64644;48.914;2.254;2024-02-15T08:01:16;5.00;5.00;3.00
75960;PMS7003;64644;48.914;2.254;2024-02-15T08:03:42;6.00;5.25;4.75
75960;PMS7003;64644;48.914;2.254;2024-02-15T08:06:10;3.00;3.00;1.00
75960;PMS7003;64644;48.914;2.254;2024-02-15T08:08:37;5.75;4.75;3.25
75960;PMS7003;64644;48.914;2.254;2024-02-15T08:11:06;2.25;2.25;1.75
75960;PMS7003;64644;48.914;2.254;2024-02-15T08:13:40;7.50;5.00;3.00
75960;PMS7003;64644;48.914;2.254;2024-02-15T08:16:15;5.50;5.50;4.00
75960;PMS7003;64644;48.914;2.254;2024-02-15T08:18:41;6.00;5.25;5.00
75960;PMS7003;64644;48.914;2.254;2024-02-15T08:21:08;7.50;7.50;6.00
75960;PMS7003;64644;48.914;2.254;2024-02-15T08:23:34;10.50;7.00;5.50
75960;PMS7003;64644;48.914;2.254;2024-02-15T08:25:59;6.25;4.25;2.75
75960;PMS7003;64644;48.914;2.254;2024-02-15T08:28:25;5.25;5.00;5.00
75960;PMS7003;64644;48.914;2.254;2024-02-15T08:30:51;4.75;4.25;2.50
75960;PMS7003;64644;48.914;2.254;2024-02-15T08:33:17;7.00;4.50;3.00
75960;PMS7003;64644;48.914;2.254;2024-02-15T08:35:44;6.00;6.00;3.75
75960;PMS7003;64644;48.914;2.254;2024-02-15T08:38:09;4.00;4.00;3.50
75960;PMS7003;64644;48.914;2.254;2024-02-15T08:40:35;7.00;6.75;5.00
75960;PMS7003;64644;48.914;2.254;2024-02-15T08:43:00;8.75;6.50;5.75
75960;PMS7003;64644;48.914;2.254;2024-02-15T08:45:25;6.75;6.75;4.25
75960;PMS7003;64644;48.914;2.254;2024-02-15T08:47:51;8.25;6.75;4.00
75960;PMS7003;64644;48.914;2.254;2024-02-15T08:50:18;8.00;6.00;4.00
75960;PMS7003;64644;48.914;2.254;2024-02-15T08:52:44;5.50;4.25;3.25
75960;PMS7003;64644;48.914;2.254;2024-02-15T08:55:11;9.00;7.50;4.25
75960;PMS7003;64644;48.914;2.254;2024-02-15T08:57:40;9.25;8.00;6.50
75960;PMS7003;64644;48.914;2.254;2024-02-15T09:00:09;8.00;7.00;6.00
75960;PMS7003;64644;48.914;2.254;2024-02-15T09:02:45;7.50;7.50;5.50
75960;PMS7003;64644;48.914;2.254;2024-02-15T09:05:11;11.50;8.25;4.25
75960;PMS7003;64644;48.914;2.254;2024-02-15T09:07:43;9.50;8.00;6.75
75960;PMS7003;64644;48.914;2.254;2024-02-15T09:10:12;5.25;4.50;4.25
75960;PMS7003;64644;48.914;2.254;2024-02-15T09:12:40;6.75;6.25;3.50
75960;PMS7003;64644;48.914;2.254;2024-02-15T09:15:07;11.00;8.50;7.00
75960;PMS7003;64644;48.914;2.254;2024-02-15T09:17:33;8.75;7.25;4.50
75960;PMS7003;64644;48.914;2.254;2024-02-15T09:20:05;10.00;8.75;5.50
75960;PMS7003;64644;48.914;2.254;2024-02-15T09:22:32;7.50;6.00;4.00
75960;PMS7003;64644;48.914;2.254;2024-02-15T09:24:58;6.75;6.00;3.50
75960;PMS7003;64644;48.914;2.254;2024-02-15T09:27:23;7.75;7.75;5.50
75960;PMS7003;64644;48.914;2.254;2024-02-15T09:29:49;6.75;6.00;4.00
75960;PMS7003;64644;48.914;2.254;2024-02-15T09:32:14;10.75;7.50;6.25
75960;PMS7003;64644;48.914;2.254;2024-02-15T09:34:39;8.50;8.00;4.50
75960;PMS7003;64644;48.914;2.254;2024-02-15T09:37:06;9.75;8.00;4.00
75960;PMS7003;64644;48.914;2.254;2024-02-15T09:39:32;8.00;8.00;6.00
75960;PMS7003;64644;48.914;2.254;2024-02-15T09:41:57;7.50;6.00;4.00
75960;PMS7003;64644;48.914;2.254;2024-02-15T09:44:25;8.25;8.25;5.00
75960;PMS7003;64644;48.914;2.254;2024-02-15T09:46:59;6.50;6.50;6.00
75960;PMS7003;64644;48.914;2.254;2024-02-15T09:49:29;7.75;7.75;4.00
75960;PMS7003;64644;48.914;2.254;2024-02-15T09:51:55;8.25;7.25;6.00
75960;PMS7003;64644;48.914;2.254;2024-02-15T09:54:23;8.00;7.00;5.50
75960;PMS7003;64644;48.914;2.254;2024-02-15T09:56:50;8.00;8.00;4.50
75960;PMS7003;64644;48.914;2.254;2024-02-15T09:59:17;9.50;8.25;6.00
75960;PMS7003;64644;48.914;2.254;2024-02-15T10:01:44;6.75;6.75;4.00
75960;PMS7003;64644;48.914;2.254;2024-02-15T10:04:12;8.75;8.00;5.00
75960;PMS7003;64644;48.914;2.254;2024-02-15T10:06:41;7.50;7.50;5.00
75960;PMS7003;64644;48.914;2.254;2024-02-15T10:11:59;5.50;5.50;4.00
75960;PMS7003;64644;48.914;2.254;2024-02-15T10:14:26;6.75;5.50;4.25
75960;PMS7003;64644;48.914;2.254;2024-02-15T10:16:54;9.25;4.00;3.50
75960;PMS7003;64644;48.914;2.254;2024-02-15T10:19:20;8.00;8.00;5.00
75960;PMS7003;64644;48.914;2.254;2024-02-15T10:21:52;7.75;6.50;5.00
75960;PMS7003;64644;48.914;2.254;2024-02-15T10:24:20;6.75;6.75;4.75
75960;PMS7003;64644;48.914;2.254;2024-02-15T10:26:48;6.75;6.00;4.25
75960;PMS7003;64644;48.914;2.254;2024-02-15T10:29:14;4.75;4.75;3.00
75960;PMS7003;64644;48.914;2.254;2024-02-15T10:31:54;6.25;6.00;4.50
75960;PMS7003;64644;48.914;2.254;2024-02-15T10:34:21;6.50;6.50;4.00
75960;PMS7003;64644;48.914;2.254;2024-02-15T10:36:48;5.50;5.50;3.75
75960;PMS7003;64644;48.914;2.254;2024-02-15T10:39:15;4.50;4.50;3.00
75960;PMS7003;64644;48.914;2.254;2024-02-15T10:41:44;8.00;6.50;5.00
75960;PMS7003;64644;48.914;2.254;2024-02-15T10:44:18;7.50;4.75;4.00
75960;PMS7003;64644;48.914;2.254;2024-02-15T10:46:46;5.25;5.25;3.75
75960;PMS7003;64644;48.914;2.254;2024-02-15T10:49:20;5.00;4.00;4.00
75960;PMS7003;64644;48.914;2.254;2024-02-15T10:51:56;4.00;4.00;3.00
75960;PMS7003;64644;48.914;2.254;2024-02-15T10:54:58;8.25;7.75;4.00
75960;PMS7003;64644;48.914;2.254;2024-02-15T10:57:21;5.00;4.00;3.00
75960;PMS7003;64644;48.914;2.254;2024-02-15T10:59:54;5.00;5.00;4.00
75960;PMS7003;64644;48.914;2.254;2024-02-15T11:02:30;7.00;5.00;4.00
75960;PMS7003;64644;48.914;2.254;2024-02-15T11:05:02;5.00;4.25;3.25
75960;PMS7003;64644;48.914;2.254;2024-02-15T11:07:34;6.50;6.00;4.50
75960;PMS7003;64644;48.914;2.254;2024-02-15T11:10:00;6.25;5.75;5.00
75960;PMS7003;64644;48.914;2.254;2024-02-15T11:12:27;4.25;4.00;3.00
75960;PMS7003;64644;48.914;2.254;2024-02-15T11:14:54;8.00;8.00;4.00
75960;PMS7003;64644;48.914;2.254;2024-02-15T11:20:08;5.00;5.00;4.00
75960;PMS7003;64644;48.914;2.254;2024-02-15T11:23:09;4.50;4.50;4.00
75960;PMS7003;64644;48.914;2.254;2024-02-15T11:25:36;4.00;4.00;3.25
75960;PMS7003;64644;48.914;2.254;2024-02-15T11:30:53;8.75;7.50;5.50
75960;PMS7003;64644;48.914;2.254;2024-02-15T11:33:27;8.00;6.25;4.00
75960;PMS7003;64644;48.914;2.254;2024-02-15T11:38:36;4.50;4.50;3.00
75960;PMS7003;64644;48.914;2.254;2024-02-15T11:41:06;3.75;3.75;3.00
75960;PMS7003;64644;48.914;2.254;2024-02-15T11:46:16;6.50;4.75;4.00
75960;PMS7003;64644;48.914;2.254;2024-02-15T11:48:45;6.00;5.50;2.75
75960;PMS7003;64644;48.914;2.254;2024-02-15T11:51:24;5.50;5.50;3.50
75960;PMS7003;64644;48.914;2.254;2024-02-15T11:54:07;5.00;4.50;4.00
75960;PMS7003;64644;48.914;2.254;2024-02-15T11:59:13;5.50;5.50;3.00
75960;PMS7003;64644;48.914;2.254;2024-02-15T12:01:54;4.25;4.00;3.00
75960;PMS7003;64644;48.914;2.254;2024-02-15T12:04:39;4.75;4.25;3.50
75960;PMS7003;64644;48.914;2.254;2024-02-15T12:07:40;4.50;4.50;3.50
75960;PMS7003;64644;48.914;2.254;2024-02-15T12:10:24;5.50;4.00;2.00
75960;PMS7003;64644;48.914;2.254;2024-02-15T12:13:07;4.75;4.00;2.25
75960;PMS7003;64644;48.914;2.254;2024-02-15T12:15:56;5.00;5.00;3.50
75960;PMS7003;64644;48.914;2.254;2024-02-15T12:18:43;4.50;4.50;3.25
75960;PMS7003;64644;48.914;2.254;2024-02-15T12:21:12;4.75;4.75;3.00
75960;PMS7003;64644;48.914;2.254;2024-02-15T12:23:41;5.00;5.00;3.75
75960;PMS7003;64644;48.914;2.254;2024-02-15T12:26:07;6.00;6.00;4.00
75960;PMS7003;64644;48.914;2.254;2024-02-15T12:28:35;5.75;4.00;3.75
75960;PMS7003;64644;48.914;2.254;2024-02-15T12:31:01;5.00;5.00;3.50
75960;PMS7003;64644;48.914;2.254;2024-02-15T12:33:27;5.25;5.25;3.00
75960;PMS7003;64644;48.914;2.254;2024-02-15T12:36:05;3.50;3.50;3.00
75960;PMS7003;64644;48.914;2.254;2024-02-15T12:38:31;6.00;3.25;3.00
75960;PMS7003;64644;48.914;2.254;2024-02-15T12:40:59;4.00;3.50;3.00
75960;PMS7003;64644;48.914;2.254;2024-02-15T12:43:27;4.00;3.00;3.00
75960;PMS7003;64644;48.914;2.254;2024-02-15T12:45:52;4.25;3.75;3.00
75960;PMS7003;64644;48.914;2.254;2024-02-15T12:48:19;3.50;3.50;3.00
75960;PMS7003;64644;48.914;2.254;2024-02-15T12:50:44;3.50;3.00;2.00
75960;PMS7003;64644;48.914;2.254;2024-02-15T12:53:11;2.50;2.50;2.25
75960;PMS7003;64644;48.914;2.254;2024-02-15T12:55:36;4.25;3.25;2.75
75960;PMS7003;64644;48.914;2.254;2024-02-15T12:58:03;3.00;3.00;2.00
75960;PMS7003;64644;48.914;2.254;2024-02-15T13:00:30;4.75;4.00;3.00
75960;PMS7003;64644;48.914;2.254;2024-02-15T13:03:01;5.25;5.25;3.00
75960;PMS7003;64644;48.914;2.254;2024-02-15T13:05:28;2.50;2.50;2.00
75960;PMS7003;64644;48.914;2.254;2024-02-15T13:07:55;3.25;3.25;3.00
75960;PMS7003;64644;48.914;2.254;2024-02-15T13:10:21;4.00;4.00;3.50
75960;PMS7003;64644;48.914;2.254;2024-02-15T13:12:48;2.00;1.00;0.00
75960;PMS7003;64644;48.914;2.254;2024-02-15T13:15:14;3.75;3.75;3.00
75960;PMS7003;64644;48.914;2.254;2024-02-15T13:17:49;3.00;3.00;3.00
75960;PMS7003;64644;48.914;2.254;2024-02-15T13:20:18;3.00;3.00;2.25
75960;PMS7003;64644;48.914;2.254;2024-02-15T13:23:04;4.75;4.75;3.00
75960;PMS7003;64644;48.914;2.254;2024-02-15T13:25:33;5.00;5.00;4.00
75960;PMS7003;64644;48.914;2.254;2024-02-15T13:28:04;4.75;3.25;2.25
75960;PMS7003;64644;48.914;2.254;2024-02-15T13:30:30;5.00;4.00;3.50
75960;PMS7003;64644;48.914;2.254;2024-02-15T13:32:56;3.00;3.00;3.00
75960;PMS7003;64644;48.914;2.254;2024-02-15T13:35:21;4.00;3.00;2.75
75960;PMS7003;64644;48.914;2.254;2024-02-15T13:37:53;2.75;2.25;1.50
75960;PMS7003;64644;48.914;2.254;2024-02-15T13:40:23;0.25;0.25;0.00
75960;PMS7003;64644;48.914;2.254;2024-02-15T13:42:51;4.50;3.50;3.00
75960;PMS7003;64644;48.914;2.254;2024-02-15T13:45:22;4.75;4.75;2.00
75960;PMS7003;64644;48.914;2.254;2024-02-15T13:47:51;4.25;3.25;2.25
75960;PMS7003;64644;48.914;2.254;2024-02-15T13:50:18;3.50;3.50;3.00
75960;PMS7003;64644;48.914;2.254;2024-02-15T13:52:44;4.00;4.00;3.00
75960;PMS7003;64644;48.914;2.254;2024-02-15T13:55:13;3.75;3.75;2.00
75960;PMS7003;64644;48.914;2.254;2024-02-15T13:57:40;3.00;3.00;2.50
75960;PMS7003;64644;48.914;2.254;2024-02-15T14:00:07;3.00;3.00;3.00
75960;PMS7003;64644;48.914;2.254;2024-02-15T14:02:46;2.25;2.25;2.00
75960;PMS7003;64644;48.914;2.254;2024-02-15T14:05:21;2.00;2.00;2.00
75960;PMS7003;64644;48.914;2.254;2024-02-15T14:08:00;4.00;2.25;2.25
75960;PMS7003;64644;48.914;2.254;2024-02-15T14:10:29;4.25;4.00;3.00
75960;PMS7003;64644;48.914;2.254;2024-02-15T14:12:56;2.25;2.25;2.00
75960;PMS7003;64644;48.914;2.254;2024-02-15T14:15:25;3.25;3.25;2.00
75960;PMS7003;64644;48.914;2.254;2024-02-15T14:17:51;4.00;3.00;2.50
75960;PMS7003;64644;48.914;2.254;2024-02-15T14:20:17;4.25;3.25;2.00
75960;PMS7003;64644;48.914;2.254;2024-02-15T14:22:45;2.50;2.50;2.00
75960;PMS7003;64644;48.914;2.254;2024-02-15T14:25:17;4.00;4.00;3.00
75960;PMS7003;64644;48.914;2.254;2024-02-15T14:27:44;2.00;2.00;2.00
75960;PMS7003;64644;48.914;2.254;2024-02-15T14:30:09;2.00;2.00;2.00
75960;PMS7003;64644;48.914;2.254;2024-02-15T14:32:54;3.25;3.25;3.00
75960;PMS7003;64644;48.914;2.254;2024-02-15T14:35:35;3.00;3.00;2.00